Time;durP1;ratioP1;P1;durP2;ratioP2;P2;SDS_P1;SDS_P2;PMS_P1;PMS_P2;Temp;Humidity;BMP_temperature;BMP_pressure;BME280_temperature;BME280_humidity;BME280_pressure;Samples;Min_cycle;Max_cycle;Signal;HPM_P1;HPM_P2
2022/02/21 00:00:29;;;;;;;24.13;17.50;;;;;;;5.76;83.56;100739.44;5034838;28;20041;-80
2022/02/21 00:02:55;;;;;;;24.45;19.35;;;;;;;5.77;83.70;100724.69;5043696;28;20029;-79
2022/02/21 00:05:21;;;;;;;25.05;17.25;;;;;;;5.97;82.84;100735.59;5045680;28;20029;-79
2022/02/21 00:07:47;;;;;;;25.98;18.65;;;;;;;6.02;82.29;100739.22;5042705;28;20072;-79
2022/02/21 00:10:15;;;;;;;28.00;17.10;;;;;;;5.90;82.41;100730.22;5047323;28;20037;-79
2022/02/21 00:12:43;;;;;;;21.02;17.02;;;;;;;5.68;83.09;100721.00;5045786;28;20037;-79
2022/02/21 00:15:12;;;;;;;20.08;16.58;;;;;;;5.77;82.66;100733.38;5045901;28;20053;-79
2022/02/21 00:17:37;;;;;;;23.48;17.08;;;;;;;5.66;83.12;100733.09;5019245;28;20115;-79
2022/02/21 00:20:03;;;;;;;25.73;18.58;;;;;;;5.73;82.71;100736.72;5024158;28;20089;-79
2022/02/21 00:23:23;;;;;;;26.63;18.40;;;;;;;5.54;83.00;100735.38;5017857;28;20538;-79
2022/02/21 00:25:49;;;;;;;23.77;17.08;;;;;;;5.50;82.93;100715.31;5027521;28;20041;-79
2022/02/21 00:28:14;;;;;;;24.10;17.60;;;;;;;5.34;83.66;100714.06;5016624;28;20370;-80
2022/02/21 00:30:41;;;;;;;23.55;19.33;;;;;;;5.50;83.29;100721.44;5011313;28;20038;-78
2022/02/21 00:33:07;;;;;;;32.90;19.05;;;;;;;5.46;83.28;100708.31;5011721;28;20053;-78
2022/02/21 00:35:32;;;;;;;20.50;17.85;;;;;;;5.43;83.03;100716.00;5023019;28;20040;-78
2022/02/21 00:37:57;;;;;;;22.13;18.35;;;;;;;5.43;83.25;100718.63;5045640;28;20033;-78
2022/02/21 00:40:23;;;;;;;22.17;16.85;;;;;;;5.56;82.71;100717.22;5031877;28;20075;-78
2022/02/21 00:42:48;;;;;;;24.15;18.52;;;;;;;5.51;82.44;100709.28;5044237;28;20497;-79
2022/02/21 00:45:14;;;;;;;25.08;17.85;;;;;;;5.46;82.18;100695.28;5036461;28;20366;-79
2022/02/21 00:47:40;;;;;;;28.88;19.35;;;;;;;5.32;82.53;100705.34;5029310;28;20484;-78
2022/02/21 00:50:06;;;;;;;24.92;18.70;;;;;;;5.26;82.83;100700.84;5029882;28;20122;-78
2022/02/21 00:52:33;;;;;;;25.30;19.65;;;;;;;5.32;82.61;100687.13;5028325;28;20045;-79
2022/02/21 00:54:59;;;;;;;26.77;18.23;;;;;;;5.07;82.96;100696.88;5034030;28;20134;-78
2022/02/21 00:57:24;;;;;;;28.65;18.77;;;;;;;5.00;83.11;100686.28;5037678;28;20496;-79
2022/02/21 00:59:51;;;;;;;23.80;19.70;;;;;;;4.91;83.33;100683.44;5032299;28;20020;-79
2022/02/21 01:02:17;;;;;;;31.05;18.10;;;;;;;4.97;83.55;100692.28;5029445;28;20481;-80
2022/02/21 01:04:43;;;;;;;29.88;20.10;;;;;;;4.84;83.54;100684.97;5045935;28;20060;-79
2022/02/21 01:07:09;;;;;;;26.55;20.02;;;;;;;4.98;83.23;100678.44;5038622;28;20034;-80
2022/02/21 01:09:35;;;;;;;24.63;19.85;;;;;;;4.97;82.99;100694.00;5045213;28;20523;-79
2022/02/21 01:12:00;;;;;;;25.08;20.35;;;;;;;4.95;83.03;100685.28;5040356;28;20060;-78
2022/02/21 01:14:26;;;;;;;26.10;20.13;;;;;;;4.73;83.66;100671.69;5044884;28;20021;-79
2022/02/21 01:16:51;;;;;;;27.75;19.63;;;;;;;4.59;84.03;100668.72;5031518;28;20045;-79
2022/02/21 01:19:17;;;;;;;24.63;19.13;;;;;;;4.72;83.63;100675.13;5036057;28;20052;-79
2022/02/21 01:21:43;;;;;;;28.42;19.65;;;;;;;4.73;83.85;100668.19;5028558;28;20041;-78
2022/02/21 01:24:08;;;;;;;28.35;20.05;;;;;;;4.86;83.06;100665.97;5031135;28;20025;-79
2022/02/21 01:26:34;;;;;;;28.70;20.48;;;;;;;4.76;83.85;100658.78;5045565;28;20464;-79
2022/02/21 01:29:00;;;;;;;26.90;21.35;;;;;;;4.80;83.55;100676.22;5040285;28;20495;-81
2022/02/21 01:31:26;;;;;;;27.42;21.33;;;;;;;4.67;84.16;100676.72;5042842;28;20090;-79
2022/02/21 01:34:27;;;;;;;28.95;21.42;;;;;;;4.76;84.03;100671.78;5050523;28;20416;-79
2022/02/21 01:36:52;;;;;;;26.65;21.95;;;;;;;4.70;83.81;100658.59;5036107;28;20477;-80
2022/02/21 01:39:19;;;;;;;27.60;20.30;;;;;;;4.37;84.53;100653.34;5041293;28;20049;-79
2022/02/21 01:41:45;;;;;;;27.92;20.85;;;;;;;4.40;85.66;100650.81;5033909;28;20057;-79
2022/02/21 01:44:17;;;;;;;25.30;19.23;;;;;;;4.50;84.96;100663.25;5042993;28;20076;-79
2022/02/21 01:46:44;;;;;;;29.10;21.40;;;;;;;4.55;85.13;100653.00;5046856;28;20038;-79
2022/02/21 01:49:12;;;;;;;32.63;22.52;;;;;;;4.68;84.69;100651.59;5041227;28;20532;-79
2022/02/21 01:51:38;;;;;;;30.52;21.77;;;;;;;4.78;84.44;100654.50;5032984;28;20088;-79
2022/02/21 01:54:10;;;;;;;24.92;20.60;;;;;;;4.65;85.32;100647.19;5044824;28;20033;-79
2022/02/21 01:56:36;;;;;;;25.13;19.73;;;;;;;4.71;85.13;100656.91;5041509;28;20052;-79
2022/02/21 01:59:03;;;;;;;24.63;20.73;;;;;;;4.73;84.61;100645.72;5032344;28;20704;-78
2022/02/21 02:01:28;;;;;;;27.50;21.65;;;;;;;4.62;84.62;100637.59;5032057;28;20057;-78
2022/02/21 02:03:54;;;;;;;26.08;19.83;;;;;;;4.52;84.95;100643.41;5048257;28;20048;-79
2022/02/21 02:06:20;;;;;;;29.45;21.88;;;;;;;4.33;86.01;100647.19;5030324;28;20083;-79
2022/02/21 02:08:46;;;;;;;30.95;21.55;;;;;;;4.42;85.94;100638.75;5012822;28;20535;-79
2022/02/21 02:11:36;;;;;;;30.40;21.95;;;;;;;4.57;84.96;100640.94;5038364;28;20125;-80
2022/02/21 02:14:35;;;;;;;34.03;20.70;;;;;;;4.69;84.46;100636.06;5032546;28;20045;-80
2022/02/21 02:17:08;;;;;;;30.13;21.17;;;;;;;4.77;84.41;100634.53;5040890;28;20045;-79
2022/02/21 02:19:34;;;;;;;29.33;21.70;;;;;;;4.50;84.40;100615.59;5043793;28;20094;-81
2022/02/21 02:22:15;;;;;;;31.52;22.15;;;;;;;4.53;84.61;100624.34;5034453;28;20045;-80
2022/02/21 02:24:44;;;;;;;34.22;23.42;;;;;;;4.52;84.59;100621.69;5032600;28;20041;-80
2022/02/21 02:27:10;;;;;;;32.22;23.20;;;;;;;4.50;84.80;100628.59;5035226;28;20033;-80
2022/02/21 02:29:37;;;;;;;29.92;22.35;;;;;;;4.41;84.93;100627.50;5046943;28;20095;-80
2022/02/21 02:32:04;;;;;;;28.88;22.33;;;;;;;4.33;85.62;100623.81;5032324;28;20124;-80
2022/02/21 02:34:29;;;;;;;30.63;22.15;;;;;;;4.59;84.67;100632.34;5045237;28;20033;-81
2022/02/21 02:36:55;;;;;;;32.90;24.48;;;;;;;4.51;84.60;100615.63;5044317;28;20096;-80
2022/02/21 02:39:22;;;;;;;34.30;24.25;;;;;;;4.37;85.05;100622.16;5039494;28;20037;-80
2022/02/21 02:41:48;;;;;;;28.48;20.70;;;;;;;4.33;84.75;100604.72;5038152;28;20033;-79
2022/02/21 02:44:13;;;;;;;30.00;23.23;;;;;;;4.34;84.46;100601.31;5040587;28;20040;-79
2022/02/21 02:46:40;;;;;;;28.67;23.75;;;;;;;4.38;84.37;100609.22;5032493;28;20053;-79
2022/02/21 02:49:06;;;;;;;36.10;26.77;;;;;;;4.43;84.18;100610.22;5045324;28;20050;-79
2022/02/21 02:51:31;;;;;;;33.47;25.38;;;;;;;4.21;84.77;100600.97;5038991;28;20041;-79
2022/02/21 02:53:57;;;;;;;36.38;24.40;;;;;;;4.25;84.63;100598.44;5042943;28;20060;-78
2022/02/21 02:56:22;;;;;;;33.58;25.63;;;;;;;4.15;84.52;100603.38;5042791;28;20102;-78
2022/02/21 02:58:49;;;;;;;41.58;29.13;;;;;;;4.04;84.83;100596.09;5033160;28;20052;-78
2022/02/21 03:01:14;;;;;;;47.05;30.58;;;;;;;3.94;85.61;100590.63;5037397;28;20046;-78
2022/02/21 03:03:40;;;;;;;43.10;30.30;;;;;;;3.89;85.48;100592.22;5034656;28;20045;-78
2022/02/21 03:06:05;;;;;;;45.10;33.08;;;;;;;3.96;85.70;100585.50;5043860;28;20056;-78
2022/02/21 03:08:31;;;;;;;49.22;33.58;;;;;;;3.92;86.46;100584.50;5050218;28;20472;-78
2022/02/21 03:10:56;;;;;;;50.50;34.75;;;;;;;3.75;86.50;100589.22;5033523;28;20481;-78
2022/02/21 03:13:22;;;;;;;52.30;32.83;;;;;;;3.75;87.25;100594.41;5039675;28;20041;-80
2022/02/21 03:15:47;;;;;;;51.75;33.97;;;;;;;3.59;87.57;100589.56;5037425;28;20952;-80
2022/02/21 03:18:13;;;;;;;54.90;34.42;;;;;;;3.86;87.35;100586.91;5034064;28;20523;-82
2022/02/21 03:20:38;;;;;;;48.28;35.33;;;;;;;3.90;86.45;100577.53;5041358;28;20369;-81
2022/02/21 03:23:04;;;;;;;50.10;33.17;;;;;;;3.80;86.51;100590.22;5040078;28;20484;-79
2022/02/21 03:25:29;;;;;;;49.85;32.55;;;;;;;3.78;86.85;100589.28;5050469;28;20474;-80
2022/02/21 03:27:54;;;;;;;52.53;33.22;;;;;;;3.91;86.30;100577.56;5043317;28;20448;-80
2022/02/21 03:30:20;;;;;;;52.42;33.15;;;;;;;4.02;86.24;100564.88;5030880;28;20466;-79
2022/02/21 03:32:45;;;;;;;43.58;29.40;;;;;;;3.94;85.82;100556.03;5038720;28;20041;-80
2022/02/21 03:35:11;;;;;;;40.20;29.40;;;;;;;3.91;86.38;100562.00;5035849;28;20031;-80
2022/02/21 03:37:37;;;;;;;41.58;29.75;;;;;;;3.88;86.29;100556.69;5039511;28;20072;-80
2022/02/21 03:40:06;;;;;;;44.15;32.22;;;;;;;3.61;87.00;100550.72;5046679;28;20052;-79
2022/02/21 03:42:32;;;;;;;48.42;34.38;;;;;;;3.54;87.54;100557.44;5053593;28;20041;-78
2022/02/21 03:44:58;;;;;;;46.95;29.73;;;;;;;3.35;87.41;100545.59;5033286;28;20029;-78
2022/02/21 03:47:24;;;;;;;35.20;28.88;;;;;;;3.17;87.47;100553.66;5039333;28;20029;-79
2022/02/21 03:49:49;;;;;;;43.58;29.95;;;;;;;3.37;87.11;100573.34;5041444;28;20041;-78
2022/02/21 03:52:15;;;;;;;45.25;31.60;;;;;;;3.37;86.85;100582.81;5041913;28;20492;-79
2022/02/21 03:54:40;;;;;;;49.67;30.92;;;;;;;3.14;86.85;100575.19;5042828;28;20037;-78
2022/02/21 03:57:06;;;;;;;49.08;31.42;;;;;;;3.02;87.57;100577.41;5043353;28;20083;-79
2022/02/21 03:59:31;;;;;;;48.38;32.40;;;;;;;2.90;88.07;100574.38;5031392;28;20091;-79
2022/02/21 04:01:57;;;;;;;47.95;31.75;;;;;;;2.94;87.66;100563.28;5039119;28;20532;-78
2022/02/21 04:04:22;;;;;;;48.20;29.30;;;;;;;2.99;87.37;100566.03;5041245;28;20037;-78
2022/02/21 04:06:47;;;;;;;42.03;29.77;;;;;;;3.01;87.35;100541.03;5040245;28;20045;-80
2022/02/21 04:09:13;;;;;;;45.50;31.13;;;;;;;2.78;87.80;100530.78;5037354;28;20420;-78
2022/02/21 04:11:38;;;;;;;37.08;30.90;;;;;;;2.66;88.50;100530.38;5046620;28;20039;-80
2022/02/21 04:14:04;;;;;;;40.20;28.67;;;;;;;2.74;88.59;100539.31;5035110;28;20037;-80
2022/02/21 04:16:34;;;;;;;33.03;27.02;;;;;;;2.78;87.74;100537.69;5032245;28;20450;-80
2022/02/21 04:19:02;;;;;;;42.60;29.65;;;;;;;2.63;88.23;100543.25;5046066;28;20071;-80
2022/02/21 04:21:30;;;;;;;42.15;29.88;;;;;;;2.73;87.75;100550.50;5030326;28;20049;-80
2022/02/21 04:23:56;;;;;;;48.70;27.10;;;;;;;2.31;88.76;100543.88;5035407;28;20022;-79
2022/02/21 04:26:21;;;;;;;36.88;26.40;;;;;;;2.33;89.55;100531.00;5035416;28;20035;-79
2022/02/21 04:28:47;;;;;;;35.20;26.52;;;;;;;2.46;89.44;100545.25;5035858;28;20508;-80
2022/02/21 04:31:17;;;;;;;58.13;27.40;;;;;;;2.47;89.09;100537.53;5031367;28;20474;-80
2022/02/21 04:33:44;;;;;;;39.38;27.10;;;;;;;2.48;88.63;100531.53;5044560;28;20069;-78
2022/02/21 04:36:11;;;;;;;39.78;25.00;;;;;;;2.54;88.82;100536.03;5033733;28;20569;-78
2022/02/21 04:38:37;;;;;;;33.80;24.73;;;;;;;2.31;88.67;100527.47;5041638;28;20033;-78
2022/02/21 04:41:02;;;;;;;38.97;25.58;;;;;;;2.34;88.78;100532.75;5043340;28;20037;-79
2022/02/21 04:43:28;;;;;;;77.75;23.70;;;;;;;2.29;89.01;100529.13;5043875;28;20041;-79
2022/02/21 04:45:55;;;;;;;44.47;26.67;;;;;;;2.48;88.84;100530.63;5037754;28;20048;-79
2022/02/21 04:48:35;;;;;;;41.72;25.88;;;;;;;2.54;88.79;100542.09;5037448;28;20040;-78
2022/02/21 04:51:14;;;;;;;55.65;23.40;;;;;;;2.37;89.05;100532.88;5029848;28;20465;-79
2022/02/21 04:53:39;;;;;;;41.05;24.23;;;;;;;2.35;89.00;100536.22;5046292;28;20030;-78
2022/02/21 04:56:05;;;;;;;40.00;23.83;;;;;;;2.35;89.03;100512.94;5028171;28;20471;-79
2022/02/21 04:58:44;;;;;;;53.28;25.30;;;;;;;2.40;89.57;100508.78;5046936;28;20051;-78
2022/02/21 05:01:10;;;;;;;44.33;26.08;;;;;;;2.26;89.61;100491.06;5030376;28;20060;-79
2022/02/21 05:03:35;;;;;;;51.03;25.17;;;;;;;2.06;90.11;100498.13;5031405;28;20041;-80
2022/02/21 05:06:00;;;;;;;58.60;26.13;;;;;;;2.32;90.64;100495.59;5032531;28;20037;-79
2022/02/21 05:08:26;;;;;;;73.47;27.38;;;;;;;2.30;90.31;100489.47;5045975;28;20029;-80
2022/02/21 05:10:52;;;;;;;43.58;26.70;;;;;;;2.46;90.25;100488.28;5040588;28;20045;-80
2022/02/21 05:13:18;;;;;;;35.38;25.40;;;;;;;2.38;89.79;100494.91;5039039;28;20108;-79
2022/02/21 05:16:25;;;;;;;42.75;28.13;;;;;;;2.38;90.22;100493.19;5028163;28;21334;-77
2022/02/21 05:19:24;;;;;;;49.25;29.35;;;;;;;2.28;91.46;100501.47;5028941;28;20038;-79
2022/02/21 05:21:50;;;;;;;58.63;28.92;;;;;;;2.46;91.57;100506.41;5034678;28;20059;-79
2022/02/21 05:24:15;;;;;;;68.95;27.38;;;;;;;2.26;91.51;100511.78;5038578;28;20045;-79
2022/02/21 05:26:41;;;;;;;40.60;27.42;;;;;;;2.52;91.34;100515.25;5036291;28;20055;-79
2022/02/21 05:29:06;;;;;;;40.20;28.05;;;;;;;2.63;90.80;100506.97;5042322;28;20033;-79
2022/02/21 05:31:32;;;;;;;34.00;26.10;;;;;;;2.65;90.41;100508.78;5031559;28;20091;-79
2022/02/21 05:33:58;;;;;;;56.60;24.63;;;;;;;2.30;90.44;100507.59;5036743;28;20420;-79
2022/02/21 05:36:23;;;;;;;36.67;25.52;;;;;;;2.33;90.48;100493.03;5039308;28;20033;-79
2022/02/21 05:38:49;;;;;;;37.33;25.92;;;;;;;2.41;90.75;100513.13;5028435;28;20481;-79
2022/02/21 05:41:14;;;;;;;48.88;25.42;;;;;;;2.62;89.92;100506.13;5031573;28;20477;-79
2022/02/21 05:43:40;;;;;;;39.13;25.60;;;;;;;2.56;89.60;100510.19;5046745;28;20049;-79
2022/02/21 05:46:05;;;;;;;41.55;26.67;;;;;;;2.43;89.64;100509.75;5030460;28;20538;-79
2022/02/21 05:48:32;;;;;;;32.97;24.38;;;;;;;2.22;90.69;100503.84;5046583;28;20139;-78
2022/02/21 05:50:57;;;;;;;42.80;25.45;;;;;;;2.40;90.21;100508.78;5032554;28;20111;-80
2022/02/21 05:53:22;;;;;;;40.80;25.73;;;;;;;2.49;89.75;100494.44;5028569;28;20041;-80
2022/02/21 05:55:48;;;;;;;54.92;48.38;;;;;;;2.76;89.47;100509.13;5031515;28;20054;-78
2022/02/21 05:58:14;;;;;;;38.50;26.35;;;;;;;2.90;88.67;100505.31;5045017;28;20048;-81
2022/02/21 06:00:42;;;;;;;38.28;25.42;;;;;;;2.80;88.78;100495.44;5029160;28;20037;-79
2022/02/21 06:03:08;;;;;;;47.95;23.52;;;;;;;2.81;88.86;100483.38;5034459;28;20020;-79
2022/02/21 06:05:34;;;;;;;37.63;24.45;;;;;;;2.78;89.00;100481.56;5029804;28;20480;-80
2022/02/21 06:07:59;;;;;;;52.13;22.13;;;;;;;2.76;89.54;100480.63;5042858;28;20045;-80
2022/02/21 06:10:25;;;;;;;54.63;22.45;;;;;;;2.85;89.79;100477.47;5029410;28;20045;-79
2022/02/21 06:12:50;;;;;;;35.28;24.42;;;;;;;2.69;89.78;100466.63;5036388;28;20121;-78
2022/02/21 06:15:16;;;;;;;34.40;25.10;;;;;;;2.89;90.20;100472.44;5035368;28;20440;-78
2022/02/21 06:17:41;;;;;;;37.70;23.65;;;;;;;2.89;90.03;100462.06;5043362;28;20028;-80
2022/02/21 06:20:07;;;;;;;56.55;24.30;;;;;;;2.65;90.38;100475.13;5027892;28;20041;-78
2022/02/21 06:22:33;;;;;;;44.67;23.75;;;;;;;2.81;91.04;100473.91;5037713;28;20033;-79
2022/02/21 06:24:59;;;;;;;36.95;22.45;;;;;;;2.70;90.74;100465.78;5028291;28;20045;-80
2022/02/21 06:27:24;;;;;;;37.67;25.25;;;;;;;2.91;90.67;100472.50;5032849;28;20034;-78
2022/02/21 06:29:50;;;;;;;54.72;23.50;;;;;;;3.02;90.45;100472.81;5017844;28;20358;-79
2022/02/21 06:32:16;;;;;;;67.97;21.08;;;;;;;2.81;90.96;100473.00;5024588;28;20477;-78
2022/02/21 06:34:41;;;;;;;49.78;21.02;;;;;;;2.92;90.97;100458.69;5019137;28;20121;-78
2022/02/21 06:37:07;;;;;;;60.20;24.40;;;;;;;2.84;91.32;100457.56;5018142;28;20045;-78
2022/02/21 06:39:32;;;;;;;39.10;21.48;;;;;;;2.95;91.26;100461.41;5022389;28;20045;-78
2022/02/21 06:41:58;;;;;;;35.45;22.67;;;;;;;3.09;91.25;100449.75;5018505;28;20040;-77
2022/02/21 06:44:23;;;;;;;48.60;23.50;;;;;;;3.26;90.62;100464.94;5019967;28;20029;-80
2022/02/21 06:46:48;;;;;;;46.80;25.58;;;;;;;3.30;90.73;100466.75;5021820;28;20493;-77
2022/02/21 06:49:14;;;;;;;38.75;21.73;;;;;;;3.29;90.93;100458.09;5006770;28;20037;-69
2022/02/21 06:51:39;;;;;;;28.05;16.67;;;;;;;3.36;89.72;100454.84;5019807;28;20056;-71
2022/02/21 06:54:06;;;;;;;35.40;22.00;;;;;;;3.76;88.71;100455.13;5030372;28;20028;-70
2022/02/21 06:56:32;;;;;;;51.85;24.52;;;;;;;3.53;87.73;100457.94;5028170;28;20053;-70
2022/02/21 06:58:58;;;;;;;40.83;25.50;;;;;;;3.24;89.04;100438.06;5027798;28;20071;-70
2022/02/21 07:01:24;;;;;;;47.30;25.83;;;;;;;3.36;88.75;100444.47;5029249;28;20041;-71
2022/02/21 07:03:50;;;;;;;33.92;22.27;;;;;;;3.55;88.85;100426.88;5019010;28;20034;-71
2022/02/21 07:06:15;;;;;;;59.03;30.27;;;;;;;3.34;89.00;100425.41;5015198;28;20405;-71
2022/02/21 07:08:41;;;;;;;57.25;28.13;;;;;;;3.67;88.38;100416.81;5015372;28;20033;-70
2022/02/21 07:11:08;;;;;;;47.10;27.80;;;;;;;3.82;88.46;100418.97;5022497;28;20072;-71
2022/02/21 07:13:34;;;;;;;43.63;26.80;;;;;;;3.73;88.28;100401.44;5026825;28;20044;-72
2022/02/21 07:16:00;;;;;;;51.42;28.35;;;;;;;3.89;87.71;100409.66;5016721;28;20117;-72
2022/02/21 07:18:26;;;;;;;53.17;30.30;;;;;;;3.98;87.19;100403.00;5020212;28;20730;-70
2022/02/21 07:20:51;;;;;;;57.85;28.30;;;;;;;3.93;86.70;100406.28;5027225;28;20121;-72
2022/02/21 07:23:18;;;;;;;39.03;25.77;;;;;;;4.29;86.36;100405.50;5015772;28;20049;-71
2022/02/21 07:25:43;;;;;;;32.72;25.27;;;;;;;3.97;85.97;100396.03;5018096;28;20041;-71
2022/02/21 07:28:09;;;;;;;37.05;25.02;;;;;;;4.23;85.71;100409.66;5020457;28;20045;-71
2022/02/21 07:30:34;;;;;;;41.33;25.55;;;;;;;4.21;84.71;100419.16;5021620;28;20481;-77
2022/02/21 07:33:00;;;;;;;40.97;24.48;;;;;;;3.78;84.77;100410.22;5025877;28;20033;-76
2022/02/21 07:35:26;;;;;;;39.38;23.60;;;;;;;3.90;85.17;100419.19;5026893;28;20108;-75
2022/02/21 07:37:52;;;;;;;36.17;25.70;;;;;;;4.04;84.79;100415.25;5024317;28;20042;-78
2022/02/21 07:40:20;;;;;;;40.70;25.05;;;;;;;3.80;85.35;100405.97;5017657;28;20043;-78
2022/02/21 07:42:49;;;;;;;38.08;26.70;;;;;;;4.10;84.88;100418.00;5022689;28;20065;-77
2022/02/21 07:45:22;;;;;;;42.13;23.80;;;;;;;4.38;83.66;100398.81;5040442;28;20053;-77
2022/02/21 07:47:55;;;;;;;49.88;28.13;;;;;;;3.92;84.41;100413.19;5025021;28;20420;-78
2022/02/21 07:50:21;;;;;;;;;;;;;;;4.26;84.13;100418.38;5052539;28;20034;-77
2022/02/21 07:52:48;;;;;;;40.78;25.60;;;;;;;4.46;83.32;100411.09;5027820;28;19924;-79
2022/02/21 07:55:14;;;;;;;42.10;24.10;;;;;;;4.47;82.78;100410.25;5010844;28;20128;-78
2022/02/21 07:57:41;;;;;;;37.88;25.70;;;;;;;4.80;82.19;100412.78;5023235;28;20041;-77
2022/02/21 08:00:07;;;;;;;40.08;28.67;;;;;;;4.50;82.14;100402.56;5009720;28;20040;-77
2022/02/21 08:02:33;;;;;;;43.97;28.30;;;;;;;4.69;81.86;100411.66;5020949;28;20110;-79
2022/02/21 08:04:58;;;;;;;47.70;29.83;;;;;;;4.88;81.91;100407.78;5010686;28;20077;-80
2022/02/21 08:07:24;;;;;;;39.63;26.70;;;;;;;5.00;81.55;100395.03;5024398;28;20481;-79
2022/02/21 08:09:49;;;;;;;42.40;26.73;;;;;;;4.96;80.96;100388.00;5010878;28;20045;-81
2022/02/21 08:12:15;;;;;;;35.72;26.25;;;;;;;5.00;80.65;100379.44;5008764;28;20132;-79
2022/02/21 08:14:40;;;;;;;45.33;26.77;;;;;;;5.02;80.44;100386.44;5015895;28;20032;-79
2022/02/21 08:17:06;;;;;;;39.45;25.83;;;;;;;5.00;80.41;100379.44;5011099;28;20161;-77
2022/02/21 08:19:32;;;;;;;30.77;21.25;;;;;;;5.28;79.44;100379.19;5019468;28;20079;-78
2022/02/21 08:21:59;;;;;;;23.10;20.00;;;;;;;5.32;78.40;100369.72;5018386;28;20042;-78
2022/02/21 08:24:24;;;;;;;35.00;20.13;;;;;;;5.49;77.54;100375.25;5020341;28;20048;-70
2022/02/21 08:26:50;;;;;;;36.33;20.83;;;;;;;5.30;78.40;100358.41;5029636;28;20029;-70
2022/02/21 08:29:15;;;;;;;29.23;19.85;;;;;;;5.55;77.70;100358.88;5022975;28;20043;-70
2022/02/21 08:31:44;;;;;;;28.45;22.15;;;;;;;5.59;77.25;100363.31;5024429;28;20080;-70
2022/02/21 08:34:09;;;;;;;30.85;19.55;;;;;;;5.33;77.08;100353.25;5020663;28;20042;-70
2022/02/21 08:36:35;;;;;;;33.90;21.83;;;;;;;5.46;77.74;100357.00;5025310;28;20430;-72
2022/02/21 08:39:00;;;;;;;29.02;17.77;;;;;;;5.66;77.32;100354.75;5023423;28;20029;-73
2022/02/21 08:41:26;;;;;;;46.92;21.40;;;;;;;5.85;76.31;100351.66;5024869;28;20041;-74
2022/02/21 08:43:54;;;;;;;26.38;20.60;;;;;;;5.74;76.50;100344.50;5034277;28;20503;-74
2022/02/21 08:46:20;;;;;;;28.77;22.27;;;;;;;5.80;76.42;100342.88;5043227;28;20068;-74
2022/02/21 08:48:46;;;;;;;34.75;21.48;;;;;;;6.08;76.36;100352.09;5046272;28;20500;-74
2022/02/21 08:51:13;;;;;;;33.38;19.05;;;;;;;6.31;75.07;100352.47;5031349;28;20122;-75
2022/02/21 08:53:38;;;;;;;31.63;17.85;;;;;;;6.31;74.51;100339.44;5032657;28;20063;-73
2022/02/21 08:56:04;;;;;;;30.23;21.02;;;;;;;6.47;74.17;100339.69;5058994;28;20487;-75
2022/02/21 08:58:29;;;;;;;25.35;17.67;;;;;;;6.18;74.46;100334.00;5057288;28;20178;-75
2022/02/21 09:00:55;;;;;;;25.75;18.65;;;;;;;6.01;75.23;100332.00;5037068;28;20238;-75
2022/02/21 09:03:26;;;;;;;22.38;15.38;;;;;;;6.22;74.28;100330.59;5043197;28;20113;-76
2022/02/21 09:05:52;;;;;;;24.60;19.15;;;;;;;6.42;74.83;100326.59;5029342;28;20481;-77
2022/02/21 09:08:18;;;;;;;21.10;18.55;;;;;;;6.53;73.68;100330.25;5034446;28;20174;-77
2022/02/21 09:10:44;;;;;;;25.40;16.63;;;;;;;6.58;73.79;100324.19;5028214;28;20037;-77
2022/02/21 09:13:09;;;;;;;33.38;18.25;;;;;;;6.30;73.88;100311.66;5033823;28;20061;-76
2022/02/21 09:15:35;;;;;;;25.95;18.38;;;;;;;6.63;73.24;100312.13;5033949;28;20530;-76
2022/02/21 09:18:02;;;;;;;20.75;17.35;;;;;;;6.92;72.23;100317.75;5042033;28;20029;-75
2022/02/21 09:20:28;;;;;;;25.27;17.25;;;;;;;7.00;72.20;100305.69;5043990;28;20029;-75
2022/02/21 09:23:09;;;;;;;26.52;19.35;;;;;;;7.00;71.93;100294.34;5036319;28;20094;-75
2022/02/21 09:25:36;;;;;;;25.05;18.52;;;;;;;6.85;71.93;100289.81;5042224;28;20107;-75
2022/02/21 09:28:01;;;;;;;33.67;19.58;;;;;;;7.07;71.59;100284.03;5043970;28;20086;-70
2022/02/21 09:30:27;;;;;;;39.58;21.00;;;;;;;7.26;70.92;100292.06;5043313;28;20389;-70
2022/02/21 09:32:53;;;;;;;29.92;22.42;;;;;;;7.16;71.53;100285.84;5027995;28;20052;-71
2022/02/21 09:35:20;;;;;;;29.48;20.88;;;;;;;7.31;70.67;100269.50;5045378;28;20497;-70
2022/02/21 09:37:46;;;;;;;30.40;21.85;;;;;;;7.26;71.03;100274.69;5044609;28;20116;-70
2022/02/21 09:40:44;;;;;;;30.63;21.63;;;;;;;7.58;70.41;100276.75;5056465;28;20041;-70
2022/02/21 09:43:12;;;;;;;27.45;22.92;;;;;;;7.57;70.17;100264.56;5030533;28;20049;-70
2022/02/21 09:45:39;;;;;;;20.17;16.38;;;;;;;7.23;69.34;100258.97;5028928;28;20049;-73
2022/02/21 09:48:07;;;;;;;27.50;17.73;;;;;;;7.45;69.27;100260.09;5035160;28;20167;-73
2022/02/21 09:50:32;;;;;;;23.52;15.30;;;;;;;7.18;69.87;100269.34;5042307;28;20036;-73
2022/02/21 09:53:01;;;;;;;18.70;15.20;;;;;;;7.53;69.44;100270.59;5051462;28;20120;-73
2022/02/21 09:55:30;;;;;;;20.98;16.50;;;;;;;7.91;68.73;100267.47;5038333;28;20045;-73
2022/02/21 09:57:55;;;;;;;22.60;15.82;;;;;;;8.06;67.86;100269.34;5029958;28;20621;-73
2022/02/21 10:00:21;;;;;;;25.77;17.58;;;;;;;7.55;69.38;100261.06;5052780;28;20484;-73
2022/02/21 10:02:49;;;;;;;19.48;15.60;;;;;;;7.91;68.27;100260.50;5045713;28;20021;-72
2022/02/21 10:05:17;;;;;;;19.35;14.38;;;;;;;7.45;69.03;100256.63;5033471;28;20041;-73
2022/02/21 10:07:44;;;;;;;18.60;15.18;;;;;;;8.07;68.32;100258.88;5029965;28;20474;-73
2022/02/21 10:10:12;;;;;;;23.55;15.55;;;;;;;8.28;67.92;100252.06;5031360;28;20153;-73
2022/02/21 10:12:51;;;;;;;27.77;16.08;;;;;;;8.31;67.22;100252.06;5029746;28;20045;-73
2022/02/21 10:15:23;;;;;;;17.05;14.60;;;;;;;8.50;66.90;100247.88;5062497;28;20037;-72
2022/02/21 10:18:21;;;;;;;19.60;14.38;;;;;;;8.85;65.44;100248.94;5049770;28;20036;-73
2022/02/21 10:24:56;;;;;;;19.15;11.55;;;;;;;8.70;65.84;100219.22;5047475;28;20044;-73
2022/02/21 10:27:23;;;;;;;18.95;12.65;;;;;;;8.72;65.18;100202.66;5032860;28;20125;-73
2022/02/21 10:29:54;;;;;;;16.02;11.95;;;;;;;9.18;63.63;100201.94;5009911;28;20033;-73
2022/02/21 10:32:25;;;;;;;17.92;13.60;;;;;;;9.42;62.62;100194.13;5035355;28;20420;-73
2022/02/21 10:34:53;;;;;;;21.08;13.13;;;;;;;9.33;63.33;100181.00;5050353;28;20037;-73
2022/02/21 10:37:22;;;;;;;16.27;11.55;;;;;;;9.18;62.96;100178.38;5029517;28;20501;-73
2022/02/21 10:39:48;;;;;;;23.15;13.27;;;;;;;9.36;63.76;100170.53;5034934;28;20048;-73
2022/02/21 10:42:38;;;;;;;15.15;11.93;;;;;;;9.54;62.90;100164.44;5047452;28;20048;-72
2022/02/21 10:45:16;;;;;;;18.00;12.45;;;;;;;9.75;61.60;100157.47;5042007;28;20024;-73
2022/02/21 10:48:28;;;;;;;17.35;11.68;;;;;;;9.92;60.15;100139.94;5056858;28;20112;-75
2022/02/21 10:50:58;;;;;;;14.18;11.05;;;;;;;9.96;60.42;100125.09;5010846;28;20060;-75
2022/02/21 10:53:41;;;;;;;20.02;11.75;;;;;;;11.06;58.05;100116.78;5028918;28;20056;-74
2022/02/21 10:56:09;;;;;;;15.93;11.82;;;;;;;11.48;56.50;100119.94;5015373;28;20347;-76
2022/02/21 10:58:34;;;;;;;19.35;12.05;;;;;;;11.60;55.66;100114.59;5023361;28;20045;-76
2022/02/21 11:01:03;;;;;;;15.50;10.57;;;;;;;11.84;53.94;100105.59;5024978;28;20497;-73
2022/02/21 11:03:29;;;;;;;12.13;10.05;;;;;;;12.20;51.93;100107.88;5022759;28;20063;-75
2022/02/21 11:09:19;;;;;;;16.75;10.52;;;;;;;12.71;51.73;100083.53;5011603;28;20095;-75
2022/02/21 11:11:50;;;;;;;13.43;10.07;;;;;;;12.64;50.22;100077.47;5018583;28;20034;-74
2022/02/21 11:14:23;;;;;;;23.88;10.95;;;;;;;12.68;50.59;100082.69;5041239;28;20048;-74
2022/02/21 11:16:50;;;;;;;14.75;9.93;;;;;;;12.71;51.80;100073.88;5019748;28;20041;-76
2022/02/21 11:19:16;;;;;;;18.25;12.55;;;;;;;13.10;50.79;100063.63;5012203;28;20046;-73
2022/02/21 11:21:46;;;;;;;12.95;8.95;;;;;;;13.28;48.75;100066.00;5018361;28;20038;-75
2022/02/21 11:24:14;;;;;;;17.48;10.77;;;;;;;13.03;49.92;100075.16;5009440;28;20033;-74
2022/02/21 11:26:54;;;;;;;12.65;9.82;;;;;;;12.35;51.30;100065.59;5017201;28;20029;-73